Kezdőlap
METAR-TAF:

METAR-TAF

Repülőterek :

Porto Alegre, Rio Grande do Sul, Brazília

földrajzi szélesség: 30-01S, földrajzi hosszúság: 051-13W, magasság: 47 m

Jelenlegi meteorológiai megfigyelések

A jelentés 1 órával és 8 perccel ezelõtt készült, 03:00 UTC
Keleti szél 7 kt
Hőmérséklet 23°C
Páratartalom 89%
Légköri nyomás 1014 hPa
Látótávolság 10 km, vagy több
felhőtlen 1500 m magasságban, és nincs gomolyfelhõ

METAR: SBCO 020300Z 10007KT CAVOK 23/21 Q1014

Idő: 01:08 (04:08 UTC)

Előrejelzés

A jelentés 7 órával és 8 perccel ezelõtt készült, 21:00 UTC
Az előrejelzés 02-én 00 óra UTC és 02-én 12 óra UTC között érvényes
Keleti szél 6 kt
Látótávolság 10 km, vagy több
felhőtlen 1500 m magasságban, és nincs gomolyfelhõ

TAF: SBCO 012100Z 0200/0212 09006KT CAVOK TN22/0209Z TX24/0212Z RMK PBH

Meteorológiai megfigyelések és előrejelzések több, mint 4000 repülőtéren (METAR és TAF jelentéseket).

A térképen piros és sárga pontok jelzik az elérhető meteorológiai állomásokat.

Mozgassa az egeret a pont fölött, hogy megjelenjen az állomás neve.

Azután kattintson az időjárási megfigyelések és előrejelzések megtekintéséhez.

A térkép megváltoztatása: kattintson a fekete keresztel jelölt zöld gombra ráközelítéshez, a vonallal jelölt zöld gombra távolításhoz, vagy a zöld nyilakra a szomszédos térképek eléréséhez.


METAR-TAF: